Ana Sayfa
METAR-TAF:

METAR-TAF

Havaalanları :

Doylestown Airport

Doylestown, Pensilvanya, Amerika Birleşik Devletleri

Enlem: 40-19-48N, Boylam: 075-07-21W, yükseklik: 120 m

Güncel hava durumu gözlemi

Rapor saat 09:54 UTC de 27 dakika önce yapıldı.
Rüzgar batıdan 3 kt
Sıcaklık 23°C
Nem 94%
Basınç 1012 hPa
Görüş mesafesi: 16.1 km
Açık gökyüzü

METAR: KDYL 220954Z AUTO 28003KT 10SM CLR 23/22 A2987 RMK AO2 SLP107 T02280217

Saat: 06:21 (10:21 UTC)


TAF: eksik

4.000'den fazla havaalanı için hava durumu gözlemleri ve tahminleri (METAR ve TAF raporları).

Kullanılabilir istasyonlar harita üzerinde sarı ve kırmızı noktalarla gösterilir.

İstasyonun adını görmek için fareyi noktanın üzerinde gezdirin.

Sonrasında hava gözlem ve tahminlerini görmek için tıklayın.

Haritayı değiştirmek için: yaklaştırmak için siyah artı işaretli yeşil düğmeye ve uzaklaştırmak için de eksi işaretli düğmeye hızla tıklayın; bitişik haritalar için yeşil okları kullanın.


METAR-TAF: